Havana, Cuba
Current Conditions -  °F | °C
As of 9:55 PM on Wednesday 22 Oct 2014 (Local Time) from MUHA Reporting Station
Light Rain Light Rain  
Wind Chill: 73°   Ceiling: 1500
Heat Index: 73°   Visibility: 5mi
Dew Point: 72°   Wind: 5mph
Humidity: 94%   Direction: 60°ENE
Pressure: 29.91"   Gusts: NA
Location:  23.12°N, 82.39°W
Report Text: MUHA 230155Z 06004KT 8000 -RA BKN015 OVC066 23/22 Q1013
Loading
Personal Weather Stations






























Interactive Weather Map New forecast layout! Learn more

10-Day Weather Forecast

Advertisements
Track Severe Weather on mobile